Terminal Aerodrome Forecast
Issued by NWS

Current Version | Previous Version | Text Only | Print | Product List | Glossary On
Versions: 1 2 3 4 5 6 7 8 9 10 11 12 13 14 15 16
000
FTUS46 KSGX 021120
TAFSNA
TAF
KSNA 021120Z 0212/0312 VRB03KT P6SM OVC011
     FM021700 VRB05KT P6SM SCT015
     FM021900 22010KT P6SM FEW016 FEW250
     FM030200 VRB05KT P6SM SCT015
     FM030600 VRB03KT P6SM OVC011=

USA.gov is the U.S. government's official web portal to all federal, state and local government web resources and services.